createdAt,value
2022-12-13T00:01:14.526Z,73.42
2022-12-13T00:03:44.959Z,73.08
2022-12-13T00:06:17.887Z,73.39
2022-12-13T00:08:48.271Z,73.95
2022-12-13T00:11:22.601Z,73.82
2022-12-13T00:13:53.574Z,73.96
2022-12-13T00:16:27.261Z,73.59
2022-12-13T00:19:01.015Z,73.35
2022-12-13T00:21:35.882Z,73.81
2022-12-13T00:24:09.077Z,73.75
2022-12-13T00:26:39.871Z,73.55
2022-12-13T00:29:11.736Z,73.78
2022-12-13T00:34:33.079Z,73.97
2022-12-13T00:37:06.226Z,74.10
2022-12-13T00:39:36.563Z,74.24
2022-12-13T00:42:07.471Z,74.37
2022-12-13T00:44:37.904Z,73.98
2022-12-13T00:47:08.473Z,73.43
2022-12-13T00:49:38.818Z,73.31
2022-12-13T00:52:12.070Z,73.54
2022-12-13T00:54:42.390Z,73.97
2022-12-13T00:57:12.768Z,74.23
2022-12-13T00:59:43.103Z,74.65
2022-12-13T01:02:13.447Z,74.64
2022-12-13T01:04:43.792Z,74.50
2022-12-13T01:07:16.719Z,74.21
2022-12-13T01:09:47.163Z,73.63
2022-12-13T01:12:17.533Z,73.00
2022-12-13T01:14:50.673Z,72.88
2022-12-13T01:17:25.022Z,72.67
2022-12-13T01:19:55.486Z,72.74
2022-12-13T01:22:28.402Z,73.03
2022-12-13T01:24:58.639Z,73.55
2022-12-13T01:27:28.941Z,73.84
2022-12-13T01:29:59.290Z,73.79
2022-12-13T01:32:29.630Z,73.90
2022-12-13T01:34:59.979Z,75.10
2022-12-13T01:37:32.932Z,76.35
2022-12-13T01:40:15.958Z,75.58
2022-12-13T01:42:47.346Z,74.94
2022-12-13T01:45:28.837Z,75.64
2022-12-13T01:48:03.501Z,75.13
2022-12-13T01:50:39.076Z,74.00
2022-12-13T01:53:17.487Z,75.30
2022-12-13T01:55:50.883Z,74.99
2022-12-13T01:58:21.988Z,75.23
2022-12-13T02:00:53.452Z,74.75
2022-12-13T02:03:25.251Z,74.93
2022-12-13T02:06:02.839Z,74.71
2022-12-13T02:08:36.780Z,74.11
2022-12-13T02:11:08.339Z,73.90
2022-12-13T02:13:42.371Z,73.64
2022-12-13T02:16:24.492Z,73.16
2022-12-13T02:19:20.219Z,73.97
2022-12-13T02:22:03.547Z,74.49
2022-12-13T02:25:03.703Z,74.11
2022-12-13T02:28:31.276Z,71.93
2022-12-13T02:31:10.321Z,70.95
2022-12-13T02:33:54.057Z,71.79
2022-12-13T02:36:36.417Z,71.86
2022-12-13T02:39:14.446Z,73.27
2022-12-13T02:41:51.671Z,73.34
2022-12-13T02:44:26.195Z,74.10
2022-12-13T02:47:03.248Z,73.13
2022-12-13T02:49:40.522Z,71.78
2022-12-13T02:52:12.582Z,71.35
2022-12-13T02:54:43.155Z,71.82
2022-12-13T02:57:35.542Z,71.95
2022-12-13T03:00:13.151Z,71.88
2022-12-13T03:03:02.199Z,71.80
2022-12-13T03:05:57.492Z,71.43
2022-12-13T03:08:34.221Z,71.78
2022-12-13T03:11:11.329Z,72.23
2022-12-13T03:13:51.474Z,72.51
2022-12-13T03:16:33.943Z,72.60
2022-12-13T03:19:11.088Z,72.59
2022-12-13T03:21:47.639Z,72.07
2022-12-13T03:24:21.560Z,71.51
2022-12-13T03:26:53.340Z,71.48
2022-12-13T03:29:25.482Z,71.64
2022-12-13T03:31:56.932Z,71.82
2022-12-13T03:34:43.658Z,72.30
2022-12-13T03:37:16.276Z,72.04
2022-12-13T03:39:46.792Z,72.15
2022-12-13T03:42:17.875Z,72.09
2022-12-13T03:44:48.284Z,71.97
2022-12-13T03:47:19.244Z,71.91
2022-12-13T03:49:54.087Z,72.04
2022-12-13T03:52:24.823Z,73.09
2022-12-13T03:54:55.174Z,71.51
2022-12-13T03:57:25.611Z,70.06
2022-12-13T03:59:56.020Z,70.02
2022-12-13T04:02:30.800Z,70.24
2022-12-13T04:05:04.672Z,70.71
2022-12-13T04:07:34.980Z,70.96
2022-12-13T04:10:25.417Z,71.15
2022-12-13T04:13:08.546Z,71.85
2022-12-13T04:15:38.842Z,72.72
2022-12-13T04:18:09.913Z,73.08
2022-12-13T04:20:42.881Z,72.17
2022-12-13T04:23:13.251Z,71.95
2022-12-13T04:25:44.439Z,71.74
2022-12-13T04:28:21.768Z,71.46
2022-12-13T04:30:54.127Z,71.27
2022-12-13T04:33:25.173Z,71.68
2022-12-13T04:35:58.225Z,72.10
2022-12-13T04:38:28.640Z,72.64
2022-12-13T04:41:09.664Z,73.07
2022-12-13T04:43:39.991Z,72.59
2022-12-13T04:46:10.850Z,72.27
2022-12-13T04:48:41.274Z,72.44
2022-12-13T04:51:14.220Z,72.17
2022-12-13T04:53:44.757Z,72.27
2022-12-13T04:56:15.256Z,72.72
2022-12-13T04:58:45.893Z,72.93
2022-12-13T05:01:17.216Z,72.99
2022-12-13T05:03:47.764Z,72.94
2022-12-13T05:06:26.999Z,72.61
2022-12-13T05:09:00.854Z,72.92
2022-12-13T05:11:35.367Z,71.93
2022-12-13T05:14:06.268Z,71.27
2022-12-13T05:16:36.766Z,70.61
2022-12-13T05:19:07.174Z,70.15
2022-12-13T05:21:40.089Z,69.74
2022-12-13T05:24:11.494Z,70.14
2022-12-13T05:26:41.753Z,70.64
2022-12-13T05:29:12.100Z,71.16
2022-12-13T05:31:43.245Z,71.33
2022-12-13T05:34:13.709Z,71.82
2022-12-13T05:36:46.887Z,72.30
2022-12-13T05:39:28.313Z,72.20
2022-12-13T05:42:02.832Z,72.08
2022-12-13T05:44:34.975Z,72.48
2022-12-13T05:47:05.382Z,72.22
2022-12-13T05:49:35.976Z,71.82
2022-12-13T05:52:20.631Z,71.15
2022-12-13T05:54:51.111Z,70.44
2022-12-13T05:57:24.170Z,70.11
2022-12-13T05:59:54.476Z,70.14
2022-12-13T06:02:26.113Z,70.20
2022-12-13T06:04:56.503Z,70.31
2022-12-13T06:07:29.457Z,70.41
2022-12-13T06:10:10.322Z,70.32
2022-12-13T06:12:43.288Z,70.05
2022-12-13T06:15:21.927Z,69.90
2022-12-13T06:17:53.394Z,69.74
2022-12-13T06:20:24.803Z,70.04
2022-12-13T06:22:57.918Z,70.53
2022-12-13T06:25:31.474Z,70.64
2022-12-13T06:28:02.626Z,70.28
2022-12-13T06:30:33.665Z,69.96
2022-12-13T06:33:04.098Z,69.48
2022-12-13T06:35:39.624Z,69.47
2022-12-13T06:38:14.508Z,69.78
2022-12-13T06:41:11.247Z,70.07
2022-12-13T06:43:44.787Z,70.26
2022-12-13T06:46:16.081Z,70.25
2022-12-13T06:48:46.477Z,69.68
2022-12-13T06:51:22.874Z,69.28
2022-12-13T06:54:05.659Z,69.24
2022-12-13T06:56:36.340Z,69.78
2022-12-13T06:59:06.796Z,70.12
2022-12-13T07:01:37.984Z,70.19
2022-12-13T07:04:30.306Z,69.99
2022-12-13T07:07:01.905Z,69.43
2022-12-13T07:09:36.308Z,68.54
2022-12-13T07:12:07.123Z,68.51
2022-12-13T07:14:40.462Z,68.78
2022-12-13T07:17:11.504Z,69.18
2022-12-13T07:19:41.893Z,69.66
2022-12-13T07:22:12.329Z,69.32
2022-12-13T07:24:45.403Z,69.19
2022-12-13T07:27:15.677Z,68.74
2022-12-13T07:29:46.214Z,68.42
2022-12-13T07:32:16.735Z,67.93
2022-12-13T07:34:47.157Z,68.25
2022-12-13T07:37:30.549Z,68.41
2022-12-13T07:40:04.933Z,69.02
2022-12-13T07:42:35.769Z,70.14
2022-12-13T07:45:07.183Z,70.78
2022-12-13T07:47:40.908Z,70.60
2022-12-13T07:50:24.108Z,69.65
2022-12-13T07:52:56.483Z,68.81
2022-12-13T07:55:33.244Z,68.05
2022-12-13T07:58:10.469Z,67.83
2022-12-13T08:00:46.550Z,67.58
2022-12-13T08:03:25.189Z,67.78
2022-12-13T08:06:03.002Z,67.98
2022-12-13T08:08:34.465Z,68.44
2022-12-13T08:11:10.911Z,68.11
2022-12-13T08:13:43.570Z,68.48
2022-12-13T08:16:27.070Z,68.38
2022-12-13T08:19:01.597Z,67.80
2022-12-13T08:24:30.448Z,67.74
2022-12-13T08:27:05.865Z,67.36
2022-12-13T08:29:37.553Z,67.14
2022-12-13T08:32:09.900Z,67.08
2022-12-13T08:34:41.376Z,66.91
2022-12-13T08:37:12.298Z,66.37
2022-12-13T08:39:43.021Z,66.38
2022-12-13T08:42:20.172Z,66.18
2022-12-13T08:44:52.692Z,66.14
2022-12-13T08:47:26.550Z,66.01
2022-12-13T08:50:02.413Z,66.05
2022-12-13T08:52:39.824Z,65.49
2022-12-13T08:55:17.429Z,64.84
2022-12-13T08:57:51.965Z,64.26
2022-12-13T09:00:23.548Z,63.17
2022-12-13T09:02:54.324Z,63.03
2022-12-13T09:05:34.231Z,63.07
2022-12-13T09:08:24.770Z,62.65
2022-12-13T09:11:11.237Z,62.15
2022-12-13T09:14:01.413Z,62.23
2022-12-13T09:16:35.686Z,60.85
2022-12-13T09:19:26.235Z,58.29
2022-12-13T09:22:02.322Z,55.30
2022-12-13T09:24:35.999Z,52.79
2022-12-13T09:27:09.760Z,51.35
2022-12-13T09:29:43.097Z,49.82
2022-12-13T09:32:13.479Z,49.49
2022-12-13T09:34:46.285Z,49.51
2022-12-13T09:37:23.141Z,49.06
2022-12-13T09:39:54.802Z,48.83
2022-12-13T09:42:30.479Z,49.47
2022-12-13T09:45:22.424Z,50.30
2022-12-13T09:48:01.078Z,50.93
2022-12-13T09:50:38.691Z,51.70
2022-12-13T09:53:11.944Z,51.77
2022-12-13T09:55:54.320Z,51.97
2022-12-13T09:58:41.090Z,51.17
2022-12-13T10:01:23.044Z,51.17
2022-12-13T10:03:55.529Z,51.06
2022-12-13T10:06:31.623Z,50.94
2022-12-13T10:09:04.822Z,49.20
2022-12-13T10:11:35.453Z,47.73
2022-12-13T10:14:09.146Z,46.89
2022-12-13T10:16:49.561Z,45.69
2022-12-13T10:19:29.408Z,45.64
2022-12-13T10:22:02.880Z,46.71
2022-12-13T10:24:52.163Z,47.84
2022-12-13T10:27:28.777Z,48.18
2022-12-13T10:30:13.672Z,48.30
2022-12-13T10:32:56.542Z,48.34
2022-12-13T10:35:34.553Z,48.39
2022-12-13T10:38:06.858Z,48.42
2022-12-13T10:40:40.534Z,48.41
2022-12-13T10:43:15.430Z,47.78
2022-12-13T10:45:47.174Z,48.10
2022-12-13T10:48:28.771Z,48.30
2022-12-13T10:51:06.843Z,47.97
2022-12-13T10:53:46.939Z,48.29
2022-12-13T10:56:23.108Z,47.65
2022-12-13T10:59:17.508Z,47.06
2022-12-13T11:01:48.370Z,47.38
2022-12-13T11:04:31.155Z,46.98
2022-12-13T11:07:05.095Z,45.83
2022-12-13T11:09:38.293Z,46.04
2022-12-13T11:12:18.511Z,44.73
2022-12-13T11:14:57.090Z,42.55
2022-12-13T11:17:30.235Z,40.72
2022-12-13T11:20:08.485Z,38.90
2022-12-13T11:22:41.746Z,37.75
2022-12-13T11:25:23.477Z,36.45
2022-12-13T11:28:37.526Z,35.23
2022-12-13T11:31:14.370Z,33.62
2022-12-13T11:33:57.027Z,31.89
2022-12-13T11:36:41.732Z,30.44
2022-12-13T11:39:27.617Z,30.10
2022-12-13T11:42:04.288Z,28.99
2022-12-13T11:44:48.491Z,29.25
2022-12-13T11:47:26.341Z,27.98
2022-12-13T11:49:57.563Z,27.57
2022-12-13T11:52:38.524Z,27.33
2022-12-13T11:55:19.472Z,27.05
2022-12-13T11:57:59.040Z,29.43
2022-12-13T12:00:37.274Z,31.32
2022-12-13T12:03:20.118Z,32.57
2022-12-13T12:05:56.142Z,33.99
2022-12-13T12:08:39.557Z,35.29
2022-12-13T12:11:20.411Z,37.05
2022-12-13T12:13:57.933Z,38.24
2022-12-13T12:16:39.005Z,39.53
2022-12-13T12:19:16.970Z,39.58
2022-12-13T12:22:18.628Z,38.87
2022-12-13T12:25:04.125Z,38.09
2022-12-13T12:27:44.049Z,36.46
2022-12-13T12:30:22.880Z,35.56
2022-12-13T12:33:05.622Z,33.56
2022-12-13T12:36:02.089Z,31.26
2022-12-13T12:39:05.881Z,28.76
2022-12-13T12:41:54.339Z,27.87
2022-12-13T12:44:44.849Z,26.30
2022-12-13T12:48:03.613Z,25.88
2022-12-13T12:50:31.872Z,25.08
2022-12-13T12:53:19.950Z,25.38
2022-12-13T12:55:59.308Z,24.56
2022-12-13T12:58:41.451Z,23.91
2022-12-13T13:01:33.459Z,23.88
2022-12-13T13:04:12.352Z,25.17
2022-12-13T13:06:49.325Z,24.89
2022-12-13T13:09:24.651Z,25.99
2022-12-13T13:11:57.546Z,26.57
2022-12-13T13:14:37.409Z,26.82
2022-12-13T13:17:50.364Z,27.76
2022-12-13T13:20:26.490Z,29.43
2022-12-13T13:23:38.967Z,31.12
2022-12-13T13:26:24.270Z,33.12
2022-12-13T13:28:48.949Z,34.48
2022-12-13T13:31:22.074Z,36.40
2022-12-13T13:33:53.924Z,37.16
2022-12-13T13:36:52.580Z,38.30
2022-12-13T13:39:59.959Z,38.95
2022-12-13T13:42:32.070Z,40.51
2022-12-13T13:45:28.221Z,41.56
2022-12-13T13:48:25.085Z,41.95
2022-12-13T13:52:08.504Z,43.48
2022-12-13T13:55:25.914Z,44.42
2022-12-13T13:58:25.584Z,44.42
2022-12-13T14:01:28.939Z,44.78
2022-12-13T14:04:56.103Z,44.48
2022-12-13T14:08:04.712Z,44.00
2022-12-13T14:10:54.088Z,43.75
2022-12-13T14:14:22.266Z,43.69
2022-12-13T14:17:34.546Z,44.60
2022-12-13T14:20:39.941Z,46.51
2022-12-13T14:23:21.827Z,48.32
2022-12-13T14:26:14.906Z,49.50
2022-12-13T14:28:52.456Z,50.87
2022-12-13T14:31:27.250Z,51.64
2022-12-13T14:34:01.223Z,52.77
2022-12-13T14:36:36.524Z,53.16
2022-12-13T14:39:24.679Z,53.74
2022-12-13T14:41:58.773Z,54.25
2022-12-13T14:44:31.668Z,55.30
2022-12-13T14:47:05.486Z,56.51
2022-12-13T14:49:39.917Z,56.97
2022-12-13T14:52:26.911Z,57.07
2022-12-13T14:55:00.375Z,57.06
2022-12-13T14:57:33.564Z,57.19
2022-12-13T15:00:25.895Z,57.77
2022-12-13T15:02:59.945Z,58.56
2022-12-13T15:05:37.100Z,59.63
2022-12-13T15:08:12.007Z,60.19
2022-12-13T15:10:48.458Z,60.25
2022-12-13T15:13:33.686Z,61.01
2022-12-13T15:16:10.747Z,61.54
2022-12-13T15:18:50.682Z,62.17
2022-12-13T15:21:33.091Z,62.47
2022-12-13T15:24:15.207Z,62.96
2022-12-13T15:27:02.925Z,63.62
2022-12-13T15:29:37.847Z,63.46
2022-12-13T15:32:16.359Z,63.35
2022-12-13T15:34:46.713Z,63.79
2022-12-13T15:37:28.973Z,63.90
2022-12-13T15:40:10.906Z,64.56
2022-12-13T15:42:47.723Z,65.16
2022-12-13T15:45:29.188Z,65.59
2022-12-13T15:48:03.626Z,65.73
2022-12-13T15:50:41.047Z,65.97
2022-12-13T15:53:27.575Z,66.41
2022-12-13T15:56:04.826Z,67.11
2022-12-13T15:58:40.813Z,67.35
2022-12-13T16:01:27.770Z,67.44
2022-12-13T16:03:58.294Z,66.80
2022-12-13T16:06:30.200Z,67.17
2022-12-13T16:09:03.814Z,67.57
2022-12-13T16:11:50.022Z,68.43
2022-12-13T16:14:49.721Z,68.91
2022-12-13T16:17:28.382Z,68.74
2022-12-13T16:20:06.150Z,69.10
2022-12-13T16:22:40.046Z,69.54
2022-12-13T16:25:12.755Z,69.58
2022-12-13T16:27:46.213Z,69.06
2022-12-13T16:30:25.854Z,68.28
2022-12-13T16:33:18.115Z,68.26
2022-12-13T16:35:46.790Z,68.53
2022-12-13T16:38:26.358Z,68.65
2022-12-13T16:40:59.233Z,68.48
2022-12-13T16:43:35.292Z,68.89
2022-12-13T16:47:14.998Z,68.29
2022-12-13T16:48:58.310Z,67.73
2022-12-13T16:51:28.649Z,68.56
2022-12-13T16:53:58.923Z,68.77
2022-12-13T16:56:29.310Z,69.00
2022-12-13T16:59:02.155Z,68.92
2022-12-13T17:01:33.112Z,68.96
2022-12-13T17:04:10.387Z,68.85
2022-12-13T17:06:43.674Z,69.13
2022-12-13T17:09:14.353Z,69.67
2022-12-13T17:11:45.036Z,69.30
2022-12-13T17:14:18.124Z,68.92
2022-12-13T17:16:48.446Z,68.58
2022-12-13T17:19:18.912Z,68.45
2022-12-13T17:21:49.213Z,68.74
2022-12-13T17:24:19.651Z,70.93
2022-12-13T17:26:54.923Z,70.43
2022-12-13T17:29:28.669Z,69.12
2022-12-13T17:32:00.009Z,68.70
2022-12-13T17:34:30.842Z,68.38
2022-12-13T17:37:05.650Z,68.67
2022-12-13T17:39:39.080Z,68.91
2022-12-13T17:42:09.816Z,69.10
2022-12-13T17:44:43.204Z,69.08
2022-12-13T17:47:13.940Z,70.34
2022-12-13T17:49:44.420Z,72.35
2022-12-13T17:52:14.869Z,72.95
2022-12-13T17:54:45.357Z,71.15
2022-12-13T17:57:15.795Z,70.21
2022-12-13T17:59:49.096Z,70.81
2022-12-13T18:02:23.147Z,70.83
2022-12-13T18:04:53.520Z,70.97
2022-12-13T18:07:24.046Z,70.42
2022-12-13T18:09:54.406Z,70.84
2022-12-13T18:12:24.666Z,71.29
2022-12-13T18:14:57.643Z,71.76
2022-12-13T18:17:46.533Z,71.52
2022-12-13T18:20:18.751Z,71.51
2022-12-13T18:22:51.514Z,71.03
2022-12-13T18:25:22.117Z,70.79
2022-12-13T18:27:57.499Z,70.72
2022-12-13T18:30:34.306Z,70.72
2022-12-13T18:33:05.439Z,70.82
2022-12-13T18:35:36.127Z,70.77
2022-12-13T18:38:06.567Z,70.04
2022-12-13T18:40:38.427Z,68.90
2022-12-13T18:43:08.765Z,68.75
2022-12-13T18:45:41.774Z,69.30
2022-12-13T18:48:12.711Z,69.22
2022-12-13T18:50:48.632Z,69.41
2022-12-13T18:53:19.526Z,69.39
2022-12-13T18:55:49.930Z,69.62
2022-12-13T18:58:20.224Z,69.91
2022-12-13T19:00:53.528Z,70.33
2022-12-13T19:03:24.424Z,70.13
2022-12-13T19:05:55.270Z,69.81
2022-12-13T19:08:26.540Z,69.68
2022-12-13T19:10:57.552Z,69.53
2022-12-13T19:13:29.085Z,70.22
2022-12-13T19:16:09.642Z,70.62
2022-12-13T19:18:40.337Z,70.52
2022-12-13T19:21:15.741Z,70.14
2022-12-13T19:23:53.178Z,69.87
2022-12-13T19:26:28.434Z,69.76
2022-12-13T19:29:00.687Z,69.27
2022-12-13T19:31:33.899Z,69.40
2022-12-13T19:34:05.289Z,68.99
2022-12-13T19:36:35.615Z,68.33
2022-12-13T19:39:06.048Z,68.09
2022-12-13T19:41:36.804Z,68.01
2022-12-13T19:44:08.085Z,68.13
2022-12-13T19:46:40.869Z,68.08
2022-12-13T19:49:13.259Z,68.11
2022-12-13T19:51:43.725Z,67.99
2022-12-13T19:54:14.264Z,67.90
2022-12-13T19:56:44.643Z,68.19
2022-12-13T19:59:15.306Z,68.31
2022-12-13T20:01:48.733Z,68.37
2022-12-13T20:04:19.315Z,68.00
2022-12-13T20:06:49.719Z,67.72
2022-12-13T20:09:20.055Z,67.68
2022-12-13T20:11:50.351Z,67.28
2022-12-13T20:14:20.619Z,66.87
2022-12-13T20:16:53.660Z,66.67
2022-12-13T20:19:23.894Z,66.47
2022-12-13T20:21:57.113Z,66.11
2022-12-13T20:24:27.665Z,66.06
2022-12-13T20:26:58.048Z,65.98
2022-12-13T20:29:28.639Z,65.74
2022-12-13T20:32:02.631Z,65.81
2022-12-13T20:34:33.147Z,66.03
2022-12-13T20:37:04.985Z,65.61
2022-12-13T20:39:35.371Z,65.68
2022-12-13T20:42:05.891Z,65.54
2022-12-13T20:44:36.376Z,65.55
2022-12-13T20:47:09.795Z,65.32
2022-12-13T20:49:40.572Z,65.60
2022-12-13T20:52:11.089Z,65.55
2022-12-13T20:54:41.496Z,65.80
2022-12-13T20:57:11.923Z,65.94
2022-12-13T20:59:42.326Z,66.18
2022-12-13T21:02:16.687Z,66.09
2022-12-13T21:04:47.031Z,66.27
2022-12-13T21:07:37.448Z,66.28
2022-12-13T21:10:09.102Z,66.78
2022-12-13T21:12:39.413Z,66.60
2022-12-13T21:15:11.624Z,66.69
2022-12-13T21:17:44.684Z,67.01
2022-12-13T21:20:14.999Z,67.01
2022-12-13T21:22:46.307Z,67.35
2022-12-13T21:25:16.452Z,67.24
2022-12-13T21:27:48.454Z,68.00
2022-12-13T21:30:18.875Z,68.22
2022-12-13T21:32:53.078Z,67.55
2022-12-13T21:35:23.415Z,67.68
2022-12-13T21:37:53.699Z,67.55
2022-12-13T21:40:25.750Z,67.34
2022-12-13T21:42:56.029Z,67.31
2022-12-13T21:45:26.455Z,67.40
2022-12-13T21:47:59.345Z,67.50
2022-12-13T21:50:29.678Z,67.73
2022-12-13T21:53:00.015Z,67.42
2022-12-13T21:55:38.989Z,67.21
2022-12-13T21:58:24.594Z,66.81
2022-12-13T22:00:55.276Z,66.61
2022-12-13T22:03:28.629Z,66.64
2022-12-13T22:05:59.015Z,66.42
2022-12-13T22:08:29.790Z,66.84
2022-12-13T22:11:16.418Z,66.90
2022-12-13T22:13:51.411Z,66.88
2022-12-13T22:16:21.745Z,66.83
2022-12-13T22:18:57.275Z,66.77
2022-12-13T22:21:27.960Z,66.70
2022-12-13T22:23:59.152Z,66.94
2022-12-13T22:26:29.914Z,67.11
2022-12-13T22:29:01.300Z,67.40
2022-12-13T22:31:32.085Z,67.11
2022-12-13T22:34:05.151Z,67.63
2022-12-13T22:36:35.790Z,67.90
2022-12-13T22:39:07.148Z,67.66
2022-12-13T22:41:37.380Z,67.51
2022-12-13T22:44:08.254Z,67.52
2022-12-13T22:46:38.637Z,67.44
2022-12-13T22:49:12.535Z,67.53
2022-12-13T22:51:43.585Z,67.64
2022-12-13T22:54:14.315Z,67.59
2022-12-13T22:56:44.732Z,67.47
2022-12-13T22:59:15.035Z,67.62
2022-12-13T23:01:47.427Z,67.72
2022-12-13T23:04:20.739Z,67.31
2022-12-13T23:06:51.097Z,67.27
2022-12-13T23:09:22.215Z,67.23
2022-12-13T23:12:04.928Z,67.15
2022-12-13T23:14:37.147Z,67.09
2022-12-13T23:17:07.746Z,66.96
2022-12-13T23:19:51.047Z,66.82
2022-12-13T23:22:25.632Z,66.91
2022-12-13T23:24:56.554Z,66.78
2022-12-13T23:27:27.553Z,66.63
2022-12-13T23:29:57.917Z,66.28
2022-12-13T23:32:28.510Z,66.42
2022-12-13T23:35:01.663Z,66.55
2022-12-13T23:37:32.011Z,66.26
2022-12-13T23:40:02.398Z,66.09
2022-12-13T23:42:33.012Z,66.12
2022-12-13T23:45:03.424Z,65.94
2022-12-13T23:47:33.928Z,65.69
2022-12-13T23:50:07.470Z,65.83
2022-12-13T23:52:37.843Z,65.43
2022-12-13T23:55:10.236Z,65.28
2022-12-13T23:57:40.657Z,64.89
